• Join FlightAware (Why Join?)
  • Login
  • US Flag 
03:31AM EDT


 

Airport Tracker/Info


-or-


 

Live Flight TrackerFlight Track Log ✈ UAL4695 ✈ 25-Apr-2013 ✈ KSAV - KEWR

Flight Track Log - Related Links

Times and Time Zones

All times are in EDT time to prevent confusion due to time zone crossing. See the UAL4695 flight status page for this flight to view local times or setup timezone preferences in your user account.

Time Position Orientation Groundspeed Altitude Reporting Facility
EDT Latitude Longitude Course Direction KTS MPH feet Rate Location/Type
09:02PM 32.1500 -81.2706 North 157 181 3,900  Level Jacksonville Center
09:03PM 32.1997 -81.2428 25° Northeast 178 205 6,400 2,520 Climbing Jacksonville Center
09:04PM 32.2681 -81.2047 25° Northeast 249 287 9,100 2,100 Climbing Jacksonville Center
09:05PM 32.6160 -81.1500 North  Level FlightAware Approximate
09:06PM 32.7172 -81.1479 North  Level FlightAware Approximate
09:06PM 32.4450 -81.1767 North 305 351 12,800  Level Jacksonville Center
09:07PM 32.8180 -81.1353 North  Level FlightAware Approximate
09:07PM 32.5328 -81.1703 North 347 399 14,200  Level Jacksonville Center
09:08PM 32.6453 -81.1606 North 358 412 16,000 1,500 Climbing Jacksonville Center
09:09PM 32.7369 -81.1514 North 364 419 17,300 1,440 Climbing Jacksonville Center
09:10PM 32.8411 -81.1419 North 364 419 18,900 1,740 Climbing Jacksonville Center
09:11PM 32.9433 -81.1350 North 364 419 20,800 1,620 Climbing Jacksonville Center
09:12PM 33.0456 -81.1256 North 364 419 22,200 1,320 Climbing Jacksonville Center
09:13PM 33.1539 -81.1161 North 375 432 23,500 1,260 Climbing Jacksonville Center
09:14PM 33.2603 -81.1067 North 381 438 24,700 1,140 Climbing Jacksonville Center
09:15PM 33.3686 -81.0994 North 387 445 25,900 1,140 Climbing Jacksonville Center
09:16PM 33.4792 -81.0897 North 387 445 27,000 1,140 Climbing Jacksonville Center
09:17PM 33.5875 -81.0800 North 387 445 28,200 1,200 Climbing Jacksonville Center
09:18PM 33.6936 -81.0478 14° North 387 445 29,400 1,200 Climbing Jacksonville Center
09:19PM 33.7947 -80.9683 33° Northeast 404 465 30,600 780 Climbing Jacksonville Center
09:20PM 33.8956 -80.8861 34° Northeast 409 471 31,000 300 Climbing Jacksonville Center
09:21PM 34.0047 -80.8008 33° Northeast 438 504 31,300 840 Climbing Jacksonville Center
09:22PM 34.1119 -80.7156 33° Northeast 457 526 32,700 1,440 Climbing Jacksonville Center
09:23PM 34.2189 -80.6275 34° Northeast 457 526 34,200 1,140 Climbing Jacksonville Center
09:24PM 34.3236 -80.5442 33° Northeast 457 526 35,000 180 Climbing Jacksonville Center
09:26PM 34.5828 -80.3317 34° Northeast 465 535 35,000  Level Washington Center
09:27PM 34.6819 -80.2517 34° Northeast 450 518 35,000  Level Washington Center
09:28PM 34.7897 -80.1617 34° Northeast 445 512 35,000  Level Washington Center
09:29PM 34.8931 -80.0789 33° Northeast 455 524 35,000  Level Washington Center
09:30PM 35.0047 -79.9914 33° Northeast 460 529 35,000  Level Washington Center
09:31PM 35.1081 -79.9031 35° Northeast 465 535 35,000  Level Washington Center
09:32PM 35.2133 -79.8172 34° Northeast 460 529 35,000  Level Washington Center
09:33PM 35.3208 -79.7286 34° Northeast 455 524 35,000  Level Washington Center
09:34PM 35.4261 -79.6397 35° Northeast 455 524 35,000  Level Washington Center
09:35PM 35.5311 -79.5558 33° Northeast 455 524 35,000  Level Washington Center
09:36PM 35.6256 -79.4761 34° Northeast 463 533 35,000  Level Washington Center
09:37PM 35.7436 -79.3769 34° Northeast 457 526 35,000  Level Washington Center
09:38PM 35.8486 -79.2897 34° Northeast 457 526 35,000  Level Washington Center
09:39PM 35.9536 -79.2022 34° Northeast 457 526 35,000  Level Washington Center
09:40PM 36.0606 -79.1122 34° Northeast 457 526 35,000  Level Washington Center
09:41PM 36.1675 -79.0192 35° Northeast 457 526 35,000  Level Washington Center
09:42PM 36.2703 -78.9308 35° Northeast 457 526 35,000  Level Washington Center
09:43PM 36.3750 -78.8397 35° Northeast 457 526 35,000  Level Washington Center
09:44PM 36.4794 -78.7511 34° Northeast 457 526 35,000  Level Washington Center
09:45PM 36.5861 -78.6597 35° Northeast 463 533 35,000  Level Washington Center
09:46PM 36.6844 -78.5678 37° Northeast 463 533 35,000  Level Washington Center
09:47PM 36.8017 -78.4661 35° Northeast 468 539 35,000  Level Washington Center
09:48PM 36.9125 -78.3714 34° Northeast 468 539 35,000  Level Washington Center
09:49PM 37.0233 -78.2714 36° Northeast 480 552 35,000  Level Washington Center
09:50PM 37.1339 -78.1761 34° Northeast 480 552 35,000  Level Washington Center
09:51PM 37.2403 -78.0806 36° Northeast 480 552 35,000  Level Washington Center
09:52PM 37.3486 -77.9822 36° Northeast 480 552 35,000  Level Washington Center
09:53PM 37.4567 -77.8864 35° Northeast 480 552 35,000  Level Washington Center
09:54PM 37.5650 -77.7872 36° Northeast 480 552 35,000  Level Washington Center
09:55PM 37.6753 -77.6908 35° Northeast 480 552 35,000  Level Washington Center
09:56PM 37.7853 -77.5914 36° Northeast 480 552 35,000  Level Washington Center
09:57PM 37.8956 -77.4917 36° Northeast 480 552 35,000  Level Washington Center
09:58PM 38.0056 -77.3917 36° Northeast 480 552 35,000  Level Washington Center
09:59PM 38.1006 -77.3042 36° Northeast 479 551 35,000 -480 Level Washington Center
10:00PM 38.2125 -77.2036 35° Northeast 485 558 34,100 -1,260 Descending Washington Center
10:01PM 38.3200 -77.1056 36° Northeast 485 558 32,500 -1,500 Descending Washington Center
10:02PM 38.4317 -77.0097 34° Northeast 485 558 31,100 -900 Descending Washington Center
10:03PM 38.5511 -76.9589 18° North 456 525 30,800 -900 Descending Washington Center
10:04PM 38.6683 -76.9131 17° North 449 517 29,400 -1,500 Descending Washington Center
10:05PM 38.7775 -76.8644 19° North 428 493 27,900 -1,200 Descending Washington Center
10:06PM 38.8722 -76.7756 36° Northeast 404 465 27,000 -480 Descending Washington Center
10:07PM 38.9442 -76.6486 54° Northeast 409 471 27,000  Level Washington Center
10:08PM 39.0264 -76.5189 51° Northeast 423 487 27,000  Level Washington Center
10:09PM 39.0900 -76.3939 57° Northeast 434 499 27,000  Level Washington Center
10:10PM 39.1719 -76.2583 52° Northeast 440 506 27,000 -60 Level Washington Center
10:11PM 39.2414 -76.1436 52° Northeast 440 506 26,900  Descending Washington Center
10:12PM 39.3211 -76.0317 47° Northeast 434 499 27,000  Climbing Washington Center
10:13PM 39.4089 -75.9272 43° Northeast 423 487 27,000 -60 Level Washington Center
10:14PM 39.4967 -75.8228 43° Northeast 418 481 26,900 -600 Descending Washington Center
10:16PM 39.6719 -75.6186 42° Northeast 421 484 25,300 -960 Descending Washington Center
10:17PM 39.7553 -75.5158 43° Northeast 416 479 24,100 -1,200 Descending Washington Center
10:18PM 39.8383 -75.4186 42° Northeast 411 473 22,900 -1,200 Descending Washington Center
10:19PM 39.9175 -75.3211 43° Northeast 396 456 21,700 -1,260 Descending Washington Center
10:20PM 39.9983 -75.2258 42° Northeast 391 450 20,400 -1,380 Descending Washington Center
10:21PM 40.0792 -75.1225 44° Northeast 378 435 19,000 -1,260 Descending Washington Center
10:22PM 40.1478 -75.0406 42° Northeast 371 427 17,900 -2,880 Descending Washington Center
10:23PM 40.2200 -74.9503 44° Northeast 365 420 13,300 -3,000 Descending Washington Center
10:24PM 40.2819 -74.8519 50° Northeast 356 410 12,000 -900 Descending Washington Center
10:25PM 40.2339 -74.8033 142° Southeast 216 249 11,600 -600 Descending Washington Center
10:26PM 40.1903 -74.8583 224° Southwest 84 97 10,900 -720 Descending Washington Center
10:27PM 40.1617 -74.9236 240° Southwest 129 148 10,200 -480 Descending Washington Center
10:28PM 40.1911 -74.9694 310° West 154 177 10,000 -120 Descending Washington Center
10:29PM 40.2450 -74.9175 36° Northeast 120 138 10,000  Level Washington Center
10:30PM 40.2633 -74.8439 72° East 165 190 10,000  Level Washington Center
10:31PM 40.2111 -74.8525 187° South 101 116 10,000 -60 Level Washington Center
10:32PM 40.1658 -74.9072 223° Southwest 133 153 9,900 -540 Descending Washington Center
10:33PM 40.1222 -74.9594 222° Southwest 187 215 9,000 -600 Descending Washington Center
10:34PM 40.1500 -75.0000 312° West 245 282 9,000  Level New York TRACON
10:35PM 40.2000 -74.9833 14° North 234 269 9,000  Level New York TRACON
10:36PM 40.2500 -74.9167 45° Northeast 256 295 9,000 -480 Level New York TRACON
10:37PM 40.3000 -74.8500 45° Northeast 280 322 8,100 -540 Descending New York TRACON
10:38PM 40.3500 -74.7667 52° Northeast 288 331 8,000 -540 Descending New York TRACON
10:39PM 40.4000 -74.7000 45° Northeast 285 328 7,100 -1,020 Descending New York TRACON
10:40PM 40.4667 -74.6500 30° Northeast 274 315 6,000 -600 Descending New York TRACON
10:41PM 40.5500 -74.6333 North 264 304 6,000  Level New York TRACON
10:42PM 40.6167 -74.6167 11° North 232 267 6,000  Level New York TRACON
10:43PM 40.6667 -74.6000 14° North 230 265 6,000  Level New York TRACON
10:44PM 40.7333 -74.5833 11° North 229 264 6,000 -120 Level New York TRACON
10:45PM 40.8000 -74.5667 11° North 230 265 5,800 -480 Descending New York TRACON
10:46PM 40.8500 -74.5500 14° North 226 260 5,100 -780 Descending New York TRACON